Celina Star — D5GB9 — position and weather

sailwx.info

Track history (hours):
 
Tides and Currents Weather Stations Pressure Air Temp Water Temp Dewpoint Dewpoint Depression Visibility Wind Speed Wind Dir Waves Ship Positions

Celina Star

Last reported at 2017-Sep-15 08:53 UTC. Time now 2017-Sep-20 23:46 UTC.
Position N 04°07' W 002°55'.

Length 243 m; draft 7.9 m.

Type: Ship (hazmat cat A). MMSI: 636016415.

Date/timePositionNaut miles runAvg speedWind from/ knotsBaromVisibWave heightAir tempDewpointWater temp
2017-Sep-15 08:53N 04°07' W 002°55'614.8
2017-Sep-15 08:28N 04°07' W 002°49'714.8
2017-Sep-15 08:00N 04°07' W 002°42'816.4
2017-Sep-15 07:30N 04°07' W 002°34'816.2
2017-Sep-15 07:00N 04°08' W 002°26'814.8
2017-Sep-15 06:29N 04°08' W 002°18'814.8
2017-Sep-15 05:55N 04°08' W 002°10'815.1
2017-Sep-15 05:25N 04°08' W 002°02'13114.1
2017-Sep-14 20:08N 04°50' E 000°02'714.2
2017-Sep-14 19:38N 04°54' E 000°08'214.5
2017-Sep-14 19:30N 04°55' E 000°09'813.9
2017-Sep-14 18:55N 04°59' E 000°17'613.9
2017-Sep-14 18:28N 05°02' E 000°22'1013.9
2017-Sep-14 17:45N 05°06' E 000°31'1314.4
2017-Sep-14 16:49N 05°13' E 000°43'58 3.8
2017-Sep-14 01:50N 05°59' E 001°18'1 2.2
2017-Sep-14 01:11N 05°59' E 001°16'0 0.0
2017-Sep-13 22:31N 05°60' E 001°16'0 0.0
2017-Sep-13 22:10N 05°60' E 001°16'0 0.2
2017-Sep-13 21:58N 05°60' E 001°16'0 0.0
2017-Sep-13 20:07N 05°60' E 001°16'  
Track history (hours):
 
Tides and Currents Weather Stations Pressure Air Temp Water Temp Dewpoint Dewpoint Depression Visibility Wind Speed Wind Dir Waves Ship Positions

Celina Star

Last reported at 2017-Sep-15 08:53 UTC. Time now 2017-Sep-20 23:46 UTC.
Position N 04°07' W 002°55'.

Length 243 m; draft 7.9 m.

Type: Ship (hazmat cat A). MMSI: 636016415.

Date/timePositionNaut miles runAvg speedWind from/ knotsBaromVisibWave heightAir tempDewpointWater temp
2017-Sep-15 08:53N 04°07' W 002°55'614.8
2017-Sep-15 08:28N 04°07' W 002°49'714.8
2017-Sep-15 08:00N 04°07' W 002°42'816.4
2017-Sep-15 07:30N 04°07' W 002°34'816.2
2017-Sep-15 07:00N 04°08' W 002°26'814.8
2017-Sep-15 06:29N 04°08' W 002°18'814.8
2017-Sep-15 05:55N 04°08' W 002°10'815.1
2017-Sep-15 05:25N 04°08' W 002°02'13114.1
2017-Sep-14 20:08N 04°50' E 000°02'714.2
2017-Sep-14 19:38N 04°54' E 000°08'214.5
2017-Sep-14 19:30N 04°55' E 000°09'813.9
2017-Sep-14 18:55N 04°59' E 000°17'613.9
2017-Sep-14 18:28N 05°02' E 000°22'1013.9
2017-Sep-14 17:45N 05°06' E 000°31'1314.4
2017-Sep-14 16:49N 05°13' E 000°43'58 3.8
2017-Sep-14 01:50N 05°59' E 001°18'1 2.2
2017-Sep-14 01:11N 05°59' E 001°16'0 0.0
2017-Sep-13 22:31N 05°60' E 001°16'0 0.0
2017-Sep-13 22:10N 05°60' E 001°16'0 0.2
2017-Sep-13 21:58N 05°60' E 001°16'0 0.0
2017-Sep-13 20:07N 05°60' E 001°16'  

Dump ship's entire track history